sensor_id;sensor_type;location;lat;lon;timestamp;temperature;humidity
19483;DHT22;9882;51.166;6.992;2023-07-08T00:00:56;28.10;62.30
19483;DHT22;9882;51.166;6.992;2023-07-08T00:03:25;28.00;62.50
19483;DHT22;9882;51.166;6.992;2023-07-08T00:05:55;28.00;62.50
19483;DHT22;9882;51.166;6.992;2023-07-08T00:08:26;28.10;62.60
19483;DHT22;9882;51.166;6.992;2023-07-08T00:10:55;28.00;62.70
19483;DHT22;9882;51.166;6.992;2023-07-08T00:13:25;28.00;62.00
19483;DHT22;9882;51.166;6.992;2023-07-08T00:15:54;27.90;62.60
19483;DHT22;9882;51.166;6.992;2023-07-08T00:18:22;27.90;62.60
19483;DHT22;9882;51.166;6.992;2023-07-08T00:20:51;27.90;62.60
19483;DHT22;9882;51.166;6.992;2023-07-08T00:23:21;27.90;62.80
19483;DHT22;9882;51.166;6.992;2023-07-08T00:25:52;27.90;62.80
19483;DHT22;9882;51.166;6.992;2023-07-08T00:28:21;27.80;62.40
19483;DHT22;9882;51.166;6.992;2023-07-08T00:30:51;27.70;63.10
19483;DHT22;9882;51.166;6.992;2023-07-08T00:33:20;27.70;63.50
19483;DHT22;9882;51.166;6.992;2023-07-08T00:35:49;27.60;63.70
19483;DHT22;9882;51.166;6.992;2023-07-08T00:38:21;27.40;64.10
19483;DHT22;9882;51.166;6.992;2023-07-08T00:40:59;27.50;64.50
19483;DHT22;9882;51.166;6.992;2023-07-08T00:43:34;27.40;64.40
19483;DHT22;9882;51.166;6.992;2023-07-08T00:46:17;27.50;64.60
19483;DHT22;9882;51.166;6.992;2023-07-08T00:48:51;27.40;64.60
19483;DHT22;9882;51.166;6.992;2023-07-08T00:51:22;27.40;64.80
19483;DHT22;9882;51.166;6.992;2023-07-08T00:53:51;27.20;63.60
19483;DHT22;9882;51.166;6.992;2023-07-08T00:56:28;27.20;64.10
19483;DHT22;9882;51.166;6.992;2023-07-08T00:58:59;27.10;64.90
19483;DHT22;9882;51.166;6.992;2023-07-08T01:01:36;27.10;65.40
19483;DHT22;9882;51.166;6.992;2023-07-08T01:04:11;27.00;65.20
19483;DHT22;9882;51.166;6.992;2023-07-08T01:06:44;27.00;65.40
19483;DHT22;9882;51.166;6.992;2023-07-08T01:09:15;27.10;65.40
19483;DHT22;9882;51.166;6.992;2023-07-08T01:11:44;27.20;65.10
19483;DHT22;9882;51.166;6.992;2023-07-08T01:14:15;27.10;64.90
19483;DHT22;9882;51.166;6.992;2023-07-08T01:16:47;27.10;65.10
19483;DHT22;9882;51.166;6.992;2023-07-08T01:19:20;27.10;64.70
19483;DHT22;9882;51.166;6.992;2023-07-08T01:22:02;27.10;65.10
19483;DHT22;9882;51.166;6.992;2023-07-08T01:24:32;27.00;65.40
19483;DHT22;9882;51.166;6.992;2023-07-08T01:27:04;27.00;65.60
19483;DHT22;9882;51.166;6.992;2023-07-08T01:29:33;27.10;65.90
19483;DHT22;9882;51.166;6.992;2023-07-08T01:32:02;26.70;64.50
19483;DHT22;9882;51.166;6.992;2023-07-08T01:34:33;26.90;67.30
19483;DHT22;9882;51.166;6.992;2023-07-08T01:37:05;26.40;65.00
19483;DHT22;9882;51.166;6.992;2023-07-08T01:39:34;25.10;67.50
19483;DHT22;9882;51.166;6.992;2023-07-08T01:42:05;24.80;76.10
19483;DHT22;9882;51.166;6.992;2023-07-08T01:44:35;25.50;78.60
19483;DHT22;9882;51.166;6.992;2023-07-08T01:47:11;26.10;79.80
19483;DHT22;9882;51.166;6.992;2023-07-08T01:49:42;26.40;79.90
19483;DHT22;9882;51.166;6.992;2023-07-08T01:52:17;26.50;79.80
19483;DHT22;9882;51.166;6.992;2023-07-08T01:54:54;26.60;80.10
19483;DHT22;9882;51.166;6.992;2023-07-08T01:57:23;26.60;80.80
19483;DHT22;9882;51.166;6.992;2023-07-08T01:59:52;26.50;81.40
19483;DHT22;9882;51.166;6.992;2023-07-08T02:02:20;26.60;82.40
19483;DHT22;9882;51.166;6.992;2023-07-08T02:04:51;26.60;83.70
19483;DHT22;9882;51.166;6.992;2023-07-08T02:07:21;26.60;85.30
19483;DHT22;9882;51.166;6.992;2023-07-08T02:09:50;26.60;86.30
19483;DHT22;9882;51.166;6.992;2023-07-08T02:12:18;26.60;86.90
19483;DHT22;9882;51.166;6.992;2023-07-08T02:14:47;26.20;87.90
19483;DHT22;9882;51.166;6.992;2023-07-08T02:17:15;26.40;87.30
19483;DHT22;9882;51.166;6.992;2023-07-08T02:19:44;26.10;88.20
19483;DHT22;9882;51.166;6.992;2023-07-08T02:22:12;26.20;88.50
19483;DHT22;9882;51.166;6.992;2023-07-08T02:24:43;26.20;85.50
19483;DHT22;9882;51.166;6.992;2023-07-08T02:27:15;26.20;87.90
19483;DHT22;9882;51.166;6.992;2023-07-08T02:29:46;26.10;84.90
19483;DHT22;9882;51.166;6.992;2023-07-08T02:32:14;26.20;87.00
19483;DHT22;9882;51.166;6.992;2023-07-08T02:34:43;26.10;84.10
19483;DHT22;9882;51.166;6.992;2023-07-08T02:37:11;26.00;82.90
19483;DHT22;9882;51.166;6.992;2023-07-08T02:39:40;26.00;83.70
19483;DHT22;9882;51.166;6.992;2023-07-08T02:42:10;26.20;84.20
19483;DHT22;9882;51.166;6.992;2023-07-08T02:44:38;26.10;83.10
19483;DHT22;9882;51.166;6.992;2023-07-08T02:47:07;25.90;80.90
19483;DHT22;9882;51.166;6.992;2023-07-08T02:49:35;25.80;80.50
19483;DHT22;9882;51.166;6.992;2023-07-08T02:52:04;26.00;81.80
19483;DHT22;9882;51.166;6.992;2023-07-08T02:54:33;25.90;78.90
19483;DHT22;9882;51.166;6.992;2023-07-08T02:57:02;26.00;80.60
19483;DHT22;9882;51.166;6.992;2023-07-08T02:59:32;26.00;79.50
19483;DHT22;9882;51.166;6.992;2023-07-08T03:02:00;25.90;79.90
19483;DHT22;9882;51.166;6.992;2023-07-08T03:04:29;25.90;79.30
19483;DHT22;9882;51.166;6.992;2023-07-08T03:06:57;25.90;77.90
19483;DHT22;9882;51.166;6.992;2023-07-08T03:09:26;25.90;79.20
19483;DHT22;9882;51.166;6.992;2023-07-08T03:11:56;25.50;73.10
19483;DHT22;9882;51.166;6.992;2023-07-08T03:14:24;25.70;78.80
19483;DHT22;9882;51.166;6.992;2023-07-08T03:16:54;25.80;79.80
19483;DHT22;9882;51.166;6.992;2023-07-08T03:19:23;25.50;78.30
19483;DHT22;9882;51.166;6.992;2023-07-08T03:21:53;25.70;80.90
19483;DHT22;9882;51.166;6.992;2023-07-08T03:24:22;25.70;81.10
19483;DHT22;9882;51.166;6.992;2023-07-08T03:26:51;25.70;81.20
19483;DHT22;9882;51.166;6.992;2023-07-08T03:29:24;25.70;81.30
19483;DHT22;9882;51.166;6.992;2023-07-08T03:31:54;25.80;81.10
19483;DHT22;9882;51.166;6.992;2023-07-08T03:34:22;25.70;81.30
19483;DHT22;9882;51.166;6.992;2023-07-08T03:36:51;25.70;81.40
19483;DHT22;9882;51.166;6.992;2023-07-08T03:39:22;25.60;82.80
19483;DHT22;9882;51.166;6.992;2023-07-08T03:41:52;25.60;84.00
19483;DHT22;9882;51.166;6.992;2023-07-08T03:44:21;25.70;84.80
19483;DHT22;9882;51.166;6.992;2023-07-08T03:46:50;25.70;85.30
19483;DHT22;9882;51.166;6.992;2023-07-08T03:49:22;25.70;85.60
19483;DHT22;9882;51.166;6.992;2023-07-08T03:51:53;24.80;87.40
19483;DHT22;9882;51.166;6.992;2023-07-08T03:54:24;24.70;92.10
19483;DHT22;9882;51.166;6.992;2023-07-08T03:56:56;24.90;92.60
19483;DHT22;9882;51.166;6.992;2023-07-08T03:59:26;25.20;92.70
19483;DHT22;9882;51.166;6.992;2023-07-08T04:01:57;25.30;92.30
19483;DHT22;9882;51.166;6.992;2023-07-08T04:04:29;25.40;93.00
19483;DHT22;9882;51.166;6.992;2023-07-08T04:06:57;25.40;93.80
19483;DHT22;9882;51.166;6.992;2023-07-08T04:09:26;25.40;94.10
19483;DHT22;9882;51.166;6.992;2023-07-08T04:11:54;25.40;95.20
19483;DHT22;9882;51.166;6.992;2023-07-08T04:14:23;25.40;96.20
19483;DHT22;9882;51.166;6.992;2023-07-08T04:16:54;25.40;96.40
19483;DHT22;9882;51.166;6.992;2023-07-08T04:19:24;25.40;96.70
19483;DHT22;9882;51.166;6.992;2023-07-08T04:21:55;25.30;97.10
19483;DHT22;9882;51.166;6.992;2023-07-08T04:24:24;25.10;97.80
19483;DHT22;9882;51.166;6.992;2023-07-08T04:26:52;25.10;98.10
19483;DHT22;9882;51.166;6.992;2023-07-08T04:29:22;24.90;97.50
19483;DHT22;9882;51.166;6.992;2023-07-08T04:31:51;25.00;99.10
19483;DHT22;9882;51.166;6.992;2023-07-08T04:34:20;24.20;98.00
19483;DHT22;9882;51.166;6.992;2023-07-08T04:36:48;24.60;99.70
19483;DHT22;9882;51.166;6.992;2023-07-08T04:39:18;23.70;99.90
19483;DHT22;9882;51.166;6.992;2023-07-08T04:41:47;23.50;99.90
19483;DHT22;9882;51.166;6.992;2023-07-08T04:44:15;24.10;99.90
19483;DHT22;9882;51.166;6.992;2023-07-08T04:46:48;24.30;99.90
19483;DHT22;9882;51.166;6.992;2023-07-08T04:49:18;24.60;99.90
19483;DHT22;9882;51.166;6.992;2023-07-08T04:51:47;24.70;99.90
19483;DHT22;9882;51.166;6.992;2023-07-08T04:54:15;24.80;99.90
19483;DHT22;9882;51.166;6.992;2023-07-08T04:56:47;24.90;99.90
19483;DHT22;9882;51.166;6.992;2023-07-08T04:59:17;24.90;99.90
19483;DHT22;9882;51.166;6.992;2023-07-08T05:01:46;24.90;99.90
19483;DHT22;9882;51.166;6.992;2023-07-08T05:04:17;24.90;99.90
19483;DHT22;9882;51.166;6.992;2023-07-08T05:06:47;24.90;99.90
19483;DHT22;9882;51.166;6.992;2023-07-08T05:09:15;24.70;98.10
19483;DHT22;9882;51.166;6.992;2023-07-08T05:11:45;24.60;95.40
19483;DHT22;9882;51.166;6.992;2023-07-08T05:14:14;24.70;99.90
19483;DHT22;9882;51.166;6.992;2023-07-08T05:16:42;24.50;97.80
19483;DHT22;9882;51.166;6.992;2023-07-08T05:19:11;24.60;99.90
19483;DHT22;9882;51.166;6.992;2023-07-08T05:21:39;24.60;99.90
19483;DHT22;9882;51.166;6.992;2023-07-08T05:24:08;24.50;99.90
19483;DHT22;9882;51.166;6.992;2023-07-08T05:26:37;24.50;99.00
19483;DHT22;9882;51.166;6.992;2023-07-08T05:29:07;24.50;99.90
19483;DHT22;9882;51.166;6.992;2023-07-08T05:31:35;24.50;99.20
19483;DHT22;9882;51.166;6.992;2023-07-08T05:34:12;24.50;99.90
19483;DHT22;9882;51.166;6.992;2023-07-08T05:36:40;24.50;96.30
19483;DHT22;9882;51.166;6.992;2023-07-08T05:39:09;24.50;99.00
19483;DHT22;9882;51.166;6.992;2023-07-08T05:41:37;24.60;99.20
19483;DHT22;9882;51.166;6.992;2023-07-08T05:44:07;24.40;95.50
19483;DHT22;9882;51.166;6.992;2023-07-08T05:46:36;24.40;95.70
19483;DHT22;9882;51.166;6.992;2023-07-08T05:49:05;24.50;98.00
19483;DHT22;9882;51.166;6.992;2023-07-08T05:51:34;24.30;94.90
19483;DHT22;9882;51.166;6.992;2023-07-08T05:54:02;24.20;93.80
19483;DHT22;9882;51.166;6.992;2023-07-08T05:56:31;24.30;97.00
19483;DHT22;9882;51.166;6.992;2023-07-08T05:58:59;24.40;95.20
19483;DHT22;9882;51.166;6.992;2023-07-08T06:01:29;24.50;94.50
19483;DHT22;9882;51.166;6.992;2023-07-08T06:03:58;24.50;95.80
19483;DHT22;9882;51.166;6.992;2023-07-08T06:06:28;24.40;95.10
19483;DHT22;9882;51.166;6.992;2023-07-08T06:08:57;24.30;95.40
19483;DHT22;9882;51.166;6.992;2023-07-08T06:11:25;24.30;95.50
19483;DHT22;9882;51.166;6.992;2023-07-08T06:13:53;24.40;93.90
19483;DHT22;9882;51.166;6.992;2023-07-08T06:16:22;24.50;94.50
19483;DHT22;9882;51.166;6.992;2023-07-08T06:18:59;24.50;96.10
19483;DHT22;9882;51.166;6.992;2023-07-08T06:21:27;24.50;95.30
19483;DHT22;9882;51.166;6.992;2023-07-08T06:23:56;24.50;95.80
19483;DHT22;9882;51.166;6.992;2023-07-08T06:26:24;24.50;94.80
19483;DHT22;9882;51.166;6.992;2023-07-08T06:28:53;24.40;95.10
19483;DHT22;9882;51.166;6.992;2023-07-08T06:31:21;24.40;95.30
19483;DHT22;9882;51.166;6.992;2023-07-08T06:33:50;24.50;95.20
19483;DHT22;9882;51.166;6.992;2023-07-08T06:36:20;24.50;95.70
19483;DHT22;9882;51.166;6.992;2023-07-08T06:38:49;24.50;94.00
19483;DHT22;9882;51.166;6.992;2023-07-08T06:41:18;24.60;93.20
19483;DHT22;9882;51.166;6.992;2023-07-08T06:43:46;24.60;94.20
19483;DHT22;9882;51.166;6.992;2023-07-08T06:46:18;24.60;95.10
19483;DHT22;9882;51.166;6.992;2023-07-08T06:48:47;24.50;94.80
19483;DHT22;9882;51.166;6.992;2023-07-08T06:51:15;24.60;94.10
19483;DHT22;9882;51.166;6.992;2023-07-08T06:53:45;24.60;93.70
19483;DHT22;9882;51.166;6.992;2023-07-08T06:56:14;24.60;94.50
19483;DHT22;9882;51.166;6.992;2023-07-08T06:58:42;24.60;93.80
19483;DHT22;9882;51.166;6.992;2023-07-08T07:01:11;24.70;93.30
19483;DHT22;9882;51.166;6.992;2023-07-08T07:03:42;24.80;92.90
19483;DHT22;9882;51.166;6.992;2023-07-08T07:06:11;24.80;92.90
19483;DHT22;9882;51.166;6.992;2023-07-08T07:08:39;24.90;93.70
19483;DHT22;9882;51.166;6.992;2023-07-08T07:11:09;24.80;92.00
19483;DHT22;9882;51.166;6.992;2023-07-08T07:13:38;24.80;92.70
19483;DHT22;9882;51.166;6.992;2023-07-08T07:16:06;24.80;93.30
19483;DHT22;9882;51.166;6.992;2023-07-08T07:18:35;24.90;93.30
19483;DHT22;9882;51.166;6.992;2023-07-08T07:21:04;25.00;93.70
19483;DHT22;9882;51.166;6.992;2023-07-08T07:23:33;25.10;92.20
19483;DHT22;9882;51.166;6.992;2023-07-08T07:26:02;25.20;92.70
19483;DHT22;9882;51.166;6.992;2023-07-08T07:28:33;25.20;92.00
19483;DHT22;9882;51.166;6.992;2023-07-08T07:31:04;25.20;92.40
19483;DHT22;9882;51.166;6.992;2023-07-08T07:33:34;25.40;92.40
19483;DHT22;9882;51.166;6.992;2023-07-08T07:36:03;25.30;92.80
19483;DHT22;9882;51.166;6.992;2023-07-08T07:38:33;25.30;92.70
19483;DHT22;9882;51.166;6.992;2023-07-08T07:41:02;25.30;92.70
19483;DHT22;9882;51.166;6.992;2023-07-08T07:43:34;25.30;92.80
19483;DHT22;9882;51.166;6.992;2023-07-08T07:46:03;25.50;93.60
19483;DHT22;9882;51.166;6.992;2023-07-08T07:48:32;25.60;92.70
19483;DHT22;9882;51.166;6.992;2023-07-08T07:51:01;25.80;92.20
19483;DHT22;9882;51.166;6.992;2023-07-08T07:53:29;25.80;92.40
19483;DHT22;9882;51.166;6.992;2023-07-08T07:55:59;25.50;92.50
19483;DHT22;9882;51.166;6.992;2023-07-08T07:58:28;25.60;92.40
19483;DHT22;9882;51.166;6.992;2023-07-08T08:00:58;25.70;92.00
19483;DHT22;9882;51.166;6.992;2023-07-08T08:03:26;25.90;91.90
19483;DHT22;9882;51.166;6.992;2023-07-08T08:05:55;25.80;91.90
19483;DHT22;9882;51.166;6.992;2023-07-08T08:08:23;25.70;92.00
19483;DHT22;9882;51.166;6.992;2023-07-08T08:10:52;25.80;92.60
19483;DHT22;9882;51.166;6.992;2023-07-08T08:13:21;25.90;92.60
19483;DHT22;9882;51.166;6.992;2023-07-08T08:15:57;26.00;92.10
19483;DHT22;9882;51.166;6.992;2023-07-08T08:18:27;26.10;92.20
19483;DHT22;9882;51.166;6.992;2023-07-08T08:20:56;26.20;91.50
19483;DHT22;9882;51.166;6.992;2023-07-08T08:23:25;26.20;91.70
19483;DHT22;9882;51.166;6.992;2023-07-08T08:25:53;26.40;91.50
19483;DHT22;9882;51.166;6.992;2023-07-08T08:28:22;26.40;90.80
19483;DHT22;9882;51.166;6.992;2023-07-08T08:30:51;26.50;90.40
19483;DHT22;9882;51.166;6.992;2023-07-08T08:33:20;26.50;91.10
19483;DHT22;9882;51.166;6.992;2023-07-08T08:35:52;26.60;90.50
19483;DHT22;9882;51.166;6.992;2023-07-08T08:38:20;26.50;90.80
19483;DHT22;9882;51.166;6.992;2023-07-08T08:40:49;26.50;90.90
19483;DHT22;9882;51.166;6.992;2023-07-08T08:43:20;26.60;91.40
19483;DHT22;9882;51.166;6.992;2023-07-08T08:45:55;26.80;91.20
19483;DHT22;9882;51.166;6.992;2023-07-08T08:48:26;26.80;91.40
19483;DHT22;9882;51.166;6.992;2023-07-08T08:51:00;26.90;91.20
19483;DHT22;9882;51.166;6.992;2023-07-08T08:53:32;26.80;91.10
19483;DHT22;9882;51.166;6.992;2023-07-08T08:56:09;26.80;91.40
19483;DHT22;9882;51.166;6.992;2023-07-08T08:58:43;26.80;90.80
19483;DHT22;9882;51.166;6.992;2023-07-08T09:01:14;26.90;89.50
19483;DHT22;9882;51.166;6.992;2023-07-08T09:03:47;27.10;87.60
19483;DHT22;9882;51.166;6.992;2023-07-08T09:06:21;27.30;87.50
19483;DHT22;9882;51.166;6.992;2023-07-08T09:08:51;27.40;86.80
19483;DHT22;9882;51.166;6.992;2023-07-08T09:11:30;27.40;87.80
19483;DHT22;9882;51.166;6.992;2023-07-08T09:14:02;27.70;87.20
19483;DHT22;9882;51.166;6.992;2023-07-08T09:16:39;27.70;89.00
19483;DHT22;9882;51.166;6.992;2023-07-08T09:19:13;27.60;88.80
19483;DHT22;9882;51.166;6.992;2023-07-08T09:21:48;27.80;88.10
19483;DHT22;9882;51.166;6.992;2023-07-08T09:24:22;27.90;86.80
19483;DHT22;9882;51.166;6.992;2023-07-08T09:26:55;28.00;84.10
19483;DHT22;9882;51.166;6.992;2023-07-08T09:29:27;28.10;84.50
19483;DHT22;9882;51.166;6.992;2023-07-08T09:31:56;28.30;86.00
19483;DHT22;9882;51.166;6.992;2023-07-08T09:34:36;28.30;82.60
19483;DHT22;9882;51.166;6.992;2023-07-08T09:37:22;28.30;82.80
19483;DHT22;9882;51.166;6.992;2023-07-08T09:39:52;28.40;81.80
19483;DHT22;9882;51.166;6.992;2023-07-08T09:42:22;28.40;80.80
19483;DHT22;9882;51.166;6.992;2023-07-08T09:44:56;28.40;83.50
19483;DHT22;9882;51.166;6.992;2023-07-08T09:47:26;28.60;82.10
19483;DHT22;9882;51.166;6.992;2023-07-08T09:49:58;28.70;81.50
19483;DHT22;9882;51.166;6.992;2023-07-08T09:52:29;28.70;82.50
19483;DHT22;9882;51.166;6.992;2023-07-08T09:54:58;28.70;82.40
19483;DHT22;9882;51.166;6.992;2023-07-08T09:57:28;28.70;83.40
19483;DHT22;9882;51.166;6.992;2023-07-08T09:59:59;28.90;81.90
19483;DHT22;9882;51.166;6.992;2023-07-08T10:02:35;28.80;82.00
19483;DHT22;9882;51.166;6.992;2023-07-08T10:05:13;28.90;82.30
19483;DHT22;9882;51.166;6.992;2023-07-08T10:07:44;29.20;81.10
19483;DHT22;9882;51.166;6.992;2023-07-08T10:10:16;29.20;79.80
19483;DHT22;9882;51.166;6.992;2023-07-08T10:12:55;29.20;81.50
19483;DHT22;9882;51.166;6.992;2023-07-08T10:15:29;29.40;75.20
19483;DHT22;9882;51.166;6.992;2023-07-08T10:17:59;29.30;78.20
19483;DHT22;9882;51.166;6.992;2023-07-08T10:20:38;29.40;78.00
19483;DHT22;9882;51.166;6.992;2023-07-08T10:23:23;29.40;76.50
19483;DHT22;9882;51.166;6.992;2023-07-08T10:26:00;29.50;77.80
19483;DHT22;9882;51.166;6.992;2023-07-08T10:28:34;29.40;78.20
19483;DHT22;9882;51.166;6.992;2023-07-08T10:31:18;29.50;78.10
19483;DHT22;9882;51.166;6.992;2023-07-08T10:34:01;29.60;76.60
19483;DHT22;9882;51.166;6.992;2023-07-08T10:36:43;29.70;74.90
19483;DHT22;9882;51.166;6.992;2023-07-08T10:42:27;29.90;75.60
19483;DHT22;9882;51.166;6.992;2023-07-08T10:45:06;30.00;78.60
19483;DHT22;9882;51.166;6.992;2023-07-08T10:47:46;30.00;79.00
19483;DHT22;9882;51.166;6.992;2023-07-08T10:50:29;30.10;76.90
19483;DHT22;9882;51.166;6.992;2023-07-08T10:53:05;30.20;75.70
19483;DHT22;9882;51.166;6.992;2023-07-08T10:55:44;30.20;78.20
19483;DHT22;9882;51.166;6.992;2023-07-08T10:58:40;30.10;77.60
19483;DHT22;9882;51.166;6.992;2023-07-08T11:01:21;30.20;75.60
19483;DHT22;9882;51.166;6.992;2023-07-08T11:04:12;30.30;73.60
19483;DHT22;9882;51.166;6.992;2023-07-08T11:06:49;30.40;73.60
19483;DHT22;9882;51.166;6.992;2023-07-08T11:09:24;30.40;75.10
19483;DHT22;9882;51.166;6.992;2023-07-08T11:11:58;30.60;75.20
19483;DHT22;9882;51.166;6.992;2023-07-08T11:14:38;30.50;76.40
19483;DHT22;9882;51.166;6.992;2023-07-08T11:17:12;30.50;75.80
19483;DHT22;9882;51.166;6.992;2023-07-08T11:19:50;30.70;74.70
19483;DHT22;9882;51.166;6.992;2023-07-08T11:22:21;30.90;71.90
19483;DHT22;9882;51.166;6.992;2023-07-08T11:24:51;30.70;73.90
19483;DHT22;9882;51.166;6.992;2023-07-08T11:27:25;30.60;73.00
19483;DHT22;9882;51.166;6.992;2023-07-08T11:30:01;30.70;71.30
19483;DHT22;9882;51.166;6.992;2023-07-08T11:32:32;30.70;74.00
19483;DHT22;9882;51.166;6.992;2023-07-08T11:35:04;30.80;72.60
19483;DHT22;9882;51.166;6.992;2023-07-08T11:37:34;30.90;72.10
19483;DHT22;9882;51.166;6.992;2023-07-08T11:40:08;30.90;71.80
19483;DHT22;9882;51.166;6.992;2023-07-08T11:42:40;31.10;71.70
19483;DHT22;9882;51.166;6.992;2023-07-08T11:45:23;31.00;72.60
19483;DHT22;9882;51.166;6.992;2023-07-08T11:47:53;31.00;72.10
19483;DHT22;9882;51.166;6.992;2023-07-08T11:50:24;31.20;72.40
19483;DHT22;9882;51.166;6.992;2023-07-08T11:52:55;31.20;72.60
19483;DHT22;9882;51.166;6.992;2023-07-08T11:55:35;31.30;72.30
19483;DHT22;9882;51.166;6.992;2023-07-08T11:58:06;31.20;71.40
19483;DHT22;9882;51.166;6.992;2023-07-08T12:00:37;31.60;69.60
19483;DHT22;9882;51.166;6.992;2023-07-08T12:03:19;31.50;71.50
19483;DHT22;9882;51.166;6.992;2023-07-08T12:05:48;31.70;70.70
19483;DHT22;9882;51.166;6.992;2023-07-08T12:08:19;31.60;72.00
19483;DHT22;9882;51.166;6.992;2023-07-08T12:10:51;31.60;71.20
19483;DHT22;9882;51.166;6.992;2023-07-08T12:13:23;31.70;71.50
19483;DHT22;9882;51.166;6.992;2023-07-08T12:15:53;31.90;68.80
19483;DHT22;9882;51.166;6.992;2023-07-08T12:18:24;31.70;72.50
19483;DHT22;9882;51.166;6.992;2023-07-08T12:20:56;31.80;70.10
19483;DHT22;9882;51.166;6.992;2023-07-08T12:23:26;31.80;68.20
19483;DHT22;9882;51.166;6.992;2023-07-08T12:25:56;31.80;67.60
19483;DHT22;9882;51.166;6.992;2023-07-08T12:28:25;32.10;65.70
19483;DHT22;9882;51.166;6.992;2023-07-08T12:30:55;32.00;68.80
19483;DHT22;9882;51.166;6.992;2023-07-08T12:33:29;32.00;63.00
19483;DHT22;9882;51.166;6.992;2023-07-08T12:35:59;32.00;66.50
19483;DHT22;9882;51.166;6.992;2023-07-08T12:38:32;32.30;67.50
19483;DHT22;9882;51.166;6.992;2023-07-08T12:41:05;32.20;68.10
19483;DHT22;9882;51.166;6.992;2023-07-08T12:43:36;32.30;67.20
19483;DHT22;9882;51.166;6.992;2023-07-08T12:46:08;32.10;63.30
19483;DHT22;9882;51.166;6.992;2023-07-08T12:48:38;32.10;68.40
19483;DHT22;9882;51.166;6.992;2023-07-08T12:51:11;32.30;69.10
19483;DHT22;9882;51.166;6.992;2023-07-08T12:53:40;32.50;65.20
19483;DHT22;9882;51.166;6.992;2023-07-08T12:56:09;32.60;64.70
19483;DHT22;9882;51.166;6.992;2023-07-08T12:58:40;32.50;63.60
19483;DHT22;9882;51.166;6.992;2023-07-08T13:01:16;32.50;65.40
19483;DHT22;9882;51.166;6.992;2023-07-08T13:03:47;32.90;64.20
19483;DHT22;9882;51.166;6.992;2023-07-08T13:06:20;32.90;64.60
19483;DHT22;9882;51.166;6.992;2023-07-08T13:08:51;33.00;61.20
19483;DHT22;9882;51.166;6.992;2023-07-08T13:11:21;33.10;64.40
19483;DHT22;9882;51.166;6.992;2023-07-08T13:13:54;33.30;65.30
19483;DHT22;9882;51.166;6.992;2023-07-08T13:16:29;33.40;65.60
19483;DHT22;9882;51.166;6.992;2023-07-08T13:18:59;33.40;62.50
19483;DHT22;9882;51.166;6.992;2023-07-08T13:21:29;33.40;62.20
19483;DHT22;9882;51.166;6.992;2023-07-08T13:23:58;33.30;64.70
19483;DHT22;9882;51.166;6.992;2023-07-08T13:26:29;33.40;64.40
19483;DHT22;9882;51.166;6.992;2023-07-08T13:29:04;33.50;65.20
19483;DHT22;9882;51.166;6.992;2023-07-08T13:31:37;34.20;63.90
19483;DHT22;9882;51.166;6.992;2023-07-08T13:34:08;34.60;59.20
19483;DHT22;9882;51.166;6.992;2023-07-08T13:36:39;35.00;59.30
19483;DHT22;9882;51.166;6.992;2023-07-08T13:39:12;35.30;60.00
19483;DHT22;9882;51.166;6.992;2023-07-08T13:41:44;35.60;58.40
19483;DHT22;9882;51.166;6.992;2023-07-08T13:44:13;36.00;57.50
19483;DHT22;9882;51.166;6.992;2023-07-08T13:46:51;35.80;56.50
19483;DHT22;9882;51.166;6.992;2023-07-08T13:49:23;35.90;55.20
19483;DHT22;9882;51.166;6.992;2023-07-08T13:51:52;36.00;56.50
19483;DHT22;9882;51.166;6.992;2023-07-08T13:54:37;36.20;56.90
19483;DHT22;9882;51.166;6.992;2023-07-08T13:57:10;36.70;55.00
19483;DHT22;9882;51.166;6.992;2023-07-08T13:59:38;37.00;55.10
19483;DHT22;9882;51.166;6.992;2023-07-08T14:02:20;37.00;54.00
19483;DHT22;9882;51.166;6.992;2023-07-08T14:04:52;36.70;53.80
19483;DHT22;9882;51.166;6.992;2023-07-08T14:07:22;37.20;53.80
19483;DHT22;9882;51.166;6.992;2023-07-08T14:09:51;37.30;53.90
19483;DHT22;9882;51.166;6.992;2023-07-08T14:12:21;37.20;54.30
19483;DHT22;9882;51.166;6.992;2023-07-08T14:14:50;37.70;54.10
19483;DHT22;9882;51.166;6.992;2023-07-08T14:17:23;37.60;53.10
19483;DHT22;9882;51.166;6.992;2023-07-08T14:19:52;37.70;53.10
19483;DHT22;9882;51.166;6.992;2023-07-08T14:22:26;37.80;53.50
19483;DHT22;9882;51.166;6.992;2023-07-08T14:24:55;37.80;52.80
19483;DHT22;9882;51.166;6.992;2023-07-08T14:27:24;37.70;53.50
19483;DHT22;9882;51.166;6.992;2023-07-08T14:29:53;37.80;52.50
19483;DHT22;9882;51.166;6.992;2023-07-08T14:32:24;38.00;52.40
19483;DHT22;9882;51.166;6.992;2023-07-08T14:34:56;37.90;51.80
19483;DHT22;9882;51.166;6.992;2023-07-08T14:37:25;37.50;51.00
19483;DHT22;9882;51.166;6.992;2023-07-08T14:39:53;37.60;53.00
19483;DHT22;9882;51.166;6.992;2023-07-08T14:42:22;37.80;51.30
19483;DHT22;9882;51.166;6.992;2023-07-08T14:44:51;37.80;53.20
19483;DHT22;9882;51.166;6.992;2023-07-08T14:47:21;37.80;53.90
19483;DHT22;9882;51.166;6.992;2023-07-08T14:49:50;37.60;50.80
19483;DHT22;9882;51.166;6.992;2023-07-08T14:52:19;37.90;52.00
19483;DHT22;9882;51.166;6.992;2023-07-08T14:54:47;38.30;52.00
19483;DHT22;9882;51.166;6.992;2023-07-08T14:57:16;38.50;51.80
19483;DHT22;9882;51.166;6.992;2023-07-08T14:59:45;38.80;52.00
19483;DHT22;9882;51.166;6.992;2023-07-08T15:02:19;38.50;52.10
19483;DHT22;9882;51.166;6.992;2023-07-08T15:04:48;38.20;48.20
19483;DHT22;9882;51.166;6.992;2023-07-08T15:07:22;38.40;52.60
19483;DHT22;9882;51.166;6.992;2023-07-08T15:09:50;38.20;52.60
19483;DHT22;9882;51.166;6.992;2023-07-08T15:12:19;38.10;53.20
19483;DHT22;9882;51.166;6.992;2023-07-08T15:14:47;38.00;53.40
19483;DHT22;9882;51.166;6.992;2023-07-08T15:17:16;38.00;53.90
19483;DHT22;9882;51.166;6.992;2023-07-08T15:19:45;37.90;52.60
19483;DHT22;9882;51.166;6.992;2023-07-08T15:22:13;37.60;52.40
19483;DHT22;9882;51.166;6.992;2023-07-08T15:24:43;37.80;51.20
19483;DHT22;9882;51.166;6.992;2023-07-08T15:27:12;37.40;50.40
19483;DHT22;9882;51.166;6.992;2023-07-08T15:29:41;37.40;53.70
19483;DHT22;9882;51.166;6.992;2023-07-08T15:32:11;37.70;54.10
19483;DHT22;9882;51.166;6.992;2023-07-08T15:34:53;37.90;54.20
19483;DHT22;9882;51.166;6.992;2023-07-08T15:37:22;38.00;54.00
19483;DHT22;9882;51.166;6.992;2023-07-08T15:39:52;37.90;53.90
19483;DHT22;9882;51.166;6.992;2023-07-08T15:42:21;37.90;54.10
19483;DHT22;9882;51.166;6.992;2023-07-08T15:44:49;38.10;54.40
19483;DHT22;9882;51.166;6.992;2023-07-08T15:47:19;38.50;54.40
19483;DHT22;9882;51.166;6.992;2023-07-08T15:49:48;38.90;51.10
19483;DHT22;9882;51.166;6.992;2023-07-08T15:52:16;39.30;52.70
19483;DHT22;9882;51.166;6.992;2023-07-08T15:54:45;39.70;51.50
19483;DHT22;9882;51.166;6.992;2023-07-08T15:57:15;39.80;51.10
19483;DHT22;9882;51.166;6.992;2023-07-08T15:59:43;39.90;50.70
19483;DHT22;9882;51.166;6.992;2023-07-08T16:02:24;40.10;50.20
19483;DHT22;9882;51.166;6.992;2023-07-08T16:04:53;40.00;48.30
19483;DHT22;9882;51.166;6.992;2023-07-08T16:07:22;39.90;50.40
19483;DHT22;9882;51.166;6.992;2023-07-08T16:09:51;39.70;50.40
19483;DHT22;9882;51.166;6.992;2023-07-08T16:12:21;39.80;50.40